Time;durP1;ratioP1;P1;durP2;ratioP2;P2;SDS_P1;SDS_P2;PMS_P1;PMS_P2;Temp;Humidity;BMP_temperature;BMP_pressure;BME280_temperature;BME280_humidity;BME280_pressure;Samples;Min_cycle;Max_cycle;Signal;HPM_P1;HPM_P2
2021/01/09 00:00:28;;;;;;;22.27;11.57;;;;;;;;;;6193745;23;20020;-84
2021/01/09 00:02:54;;;;;;;20.80;12.60;;;;;;;;;;6193224;23;20048;-84
2021/01/09 00:05:20;;;;;;;23.10;12.27;;;;;;;;;;6194399;23;20088;-85
2021/01/09 00:07:46;;;;;;;21.73;13.20;;;;;;;;;;6168113;23;20013;-85
2021/01/09 00:10:12;;;;;;;22.63;12.25;;;;;;;;;;6194772;23;20025;-85
2021/01/09 00:12:40;;;;;;;20.80;11.60;;;;;;;;;;6142887;23;20013;-85
2021/01/09 00:15:06;;;;;;;20.02;12.52;;;;;;;;;;6167736;23;20017;-85
2021/01/09 00:17:32;;;;;;;22.77;12.45;;;;;;;;;;6193629;23;20044;-84
2021/01/09 00:19:59;;;;;;;23.30;13.68;;;;;;;;;;6143355;23;20017;-84
2021/01/09 00:22:25;;;;;;;22.25;12.57;;;;;;;;;;6167755;23;20083;-84
2021/01/09 00:24:51;;;;;;;24.30;13.55;;;;;;;;;;6167274;23;20016;-84
2021/01/09 00:27:18;;;;;;;21.50;12.75;;;;;;;;;;6193893;23;20104;-84
2021/01/09 00:29:45;;;;;;;22.80;12.25;;;;;;;;;;6193911;23;20019;-84
2021/01/09 00:32:13;;;;;;;22.42;13.65;;;;;;;;;;6167277;23;20091;-84
2021/01/09 00:34:39;;;;;;;22.52;12.80;;;;;;;;;;6142838;23;20464;-84
2021/01/09 00:37:05;;;;;;;24.10;13.60;;;;;;;;;;6167623;23;20013;-84
2021/01/09 00:39:31;;;;;;;21.70;12.88;;;;;;;;;;6193287;23;20013;-85
2021/01/09 00:41:59;;;;;;;22.33;13.20;;;;;;;;;;6194162;23;20092;-85
2021/01/09 00:44:25;;;;;;;21.15;12.75;;;;;;;;;;6193181;23;20020;-85
2021/01/09 00:46:54;;;;;;;24.30;13.38;;;;;;;;;;6166777;23;20330;-84
2021/01/09 00:49:20;;;;;;;25.42;13.00;;;;;;;;;;6192808;23;20067;-84
2021/01/09 00:51:46;;;;;;;21.55;13.18;;;;;;;;;;6194052;23;20020;-84
2021/01/09 00:54:13;;;;;;;24.95;12.63;;;;;;;;;;6167304;23;20040;-84
2021/01/09 00:56:39;;;;;;;21.05;12.82;;;;;;;;;;6193664;23;20322;-85
2021/01/09 00:59:05;;;;;;;22.58;13.07;;;;;;;;;;6144490;23;20075;-84
2021/01/09 01:01:31;;;;;;;20.50;13.02;;;;;;;;;;6166988;23;20017;-84
2021/01/09 01:03:58;;;;;;;22.80;13.05;;;;;;;;;;6193707;23;20013;-84
2021/01/09 01:06:24;;;;;;;22.38;12.73;;;;;;;;;;6167385;23;20067;-84
2021/01/09 01:08:50;;;;;;;20.63;13.82;;;;;;;;;;6193738;23;20009;-84
2021/01/09 01:11:24;;;;;;;19.27;12.23;;;;;;;;;;6167189;23;20009;-84
2021/01/09 01:13:51;;;;;;;21.38;13.48;;;;;;;;;;6194009;23;20083;-84
2021/01/09 01:16:17;;;;;;;24.38;12.85;;;;;;;;;;6168071;23;20338;-84
2021/01/09 01:18:43;;;;;;;22.85;12.27;;;;;;;;;;6168346;23;20028;-85
2021/01/09 01:21:10;;;;;;;23.00;12.45;;;;;;;;;;6194616;23;20017;-85
2021/01/09 01:23:36;;;;;;;21.25;12.43;;;;;;;;;;6166677;23;20028;-85
2021/01/09 01:26:03;;;;;;;23.15;13.07;;;;;;;;;;6194507;23;20013;-85
2021/01/09 01:28:31;;;;;;;23.15;12.60;;;;;;;;;;6192254;23;20017;-85
2021/01/09 01:30:57;;;;;;;19.83;12.43;;;;;;;;;;6168950;23;20530;-84
2021/01/09 01:33:23;;;;;;;19.73;11.95;;;;;;;;;;6167980;23;20528;-85
2021/01/09 01:35:50;;;;;;;23.67;13.13;;;;;;;;;;6166133;23;20020;-84
2021/01/09 01:38:17;;;;;;;21.85;12.15;;;;;;;;;;6168536;23;20044;-85
2021/01/09 01:40:43;;;;;;;22.20;12.60;;;;;;;;;;6194899;23;20044;-85
2021/01/09 01:43:10;;;;;;;21.33;12.65;;;;;;;;;;6168543;23;20017;-85
2021/01/09 01:45:38;;;;;;;21.25;11.95;;;;;;;;;;6194816;23;20013;-85
2021/01/09 01:48:05;;;;;;;21.65;11.70;;;;;;;;;;6194820;23;20017;-85
2021/01/09 01:50:32;;;;;;;23.85;12.85;;;;;;;;;;6194264;23;20373;-84
2021/01/09 01:52:58;;;;;;;21.75;11.77;;;;;;;;;;6193015;23;20308;-85
2021/01/09 01:55:25;;;;;;;21.35;12.32;;;;;;;;;;6168224;23;20017;-85
2021/01/09 01:57:51;;;;;;;18.55;11.88;;;;;;;;;;6167708;23;20009;-85
2021/01/09 02:00:24;;;;;;;19.17;11.55;;;;;;;;;;6192726;23;20017;-85
2021/01/09 02:02:50;;;;;;;24.90;13.32;;;;;;;;;;6166244;23;20047;-85
2021/01/09 02:05:17;;;;;;;21.08;12.48;;;;;;;;;;6169309;23;20044;-85
2021/01/09 02:07:43;;;;;;;20.30;11.07;;;;;;;;;;6195115;23;20039;-85
2021/01/09 02:10:10;;;;;;;19.67;12.50;;;;;;;;;;6146001;23;20040;-85
2021/01/09 02:12:40;;;;;;;19.95;12.10;;;;;;;;;;6196998;23;20013;-85
2021/01/09 02:15:08;;;;;;;24.75;12.85;;;;;;;;;;6170663;23;20020;-85
2021/01/09 02:17:35;;;;;;;20.60;11.93;;;;;;;;;;6145311;23;20019;-85
2021/01/09 02:20:03;;;;;;;21.33;12.18;;;;;;;;;;6195963;23;20131;-85
2021/01/09 02:22:31;;;;;;;20.52;11.60;;;;;;;;;;6196815;23;20013;-85
2021/01/09 02:24:58;;;;;;;22.60;12.80;;;;;;;;;;6197166;23;20017;-85
2021/01/09 02:27:27;;;;;;;17.73;11.60;;;;;;;;;;6197764;23;20476;-85
2021/01/09 02:29:56;;;;;;;21.65;13.50;;;;;;;;;;6146528;23;20318;-85
2021/01/09 02:32:26;;;;;;;18.83;12.05;;;;;;;;;;6179438;23;20017;-85
2021/01/09 02:34:56;;;;;;;20.73;12.32;;;;;;;;;;6197623;23;20021;-85
2021/01/09 02:37:22;;;;;;;20.25;13.10;;;;;;;;;;6191834;23;20024;-85
2021/01/09 02:39:50;;;;;;;20.27;11.18;;;;;;;;;;6192178;23;20024;-85
2021/01/09 02:42:17;;;;;;;19.42;11.57;;;;;;;;;;6192759;23;20020;-85
2021/01/09 02:44:44;;;;;;;21.98;13.00;;;;;;;;;;6164566;23;20450;-84
2021/01/09 02:47:10;;;;;;;22.17;13.85;;;;;;;;;;6140293;23;20013;-84
2021/01/09 02:49:36;;;;;;;24.25;13.68;;;;;;;;;;6139449;23;20052;-85
2021/01/09 02:52:04;;;;;;;21.38;11.73;;;;;;;;;;6190721;23;20048;-85
2021/01/09 02:54:30;;;;;;;19.38;11.73;;;;;;;;;;6191581;23;20013;-85
2021/01/09 02:56:56;;;;;;;21.98;13.23;;;;;;;;;;6196282;23;20079;-85
2021/01/09 02:59:23;;;;;;;19.27;12.20;;;;;;;;;;6167931;23;20013;-85
2021/01/09 03:01:49;;;;;;;17.63;11.45;;;;;;;;;;6167781;23;20028;-85
2021/01/09 03:04:15;;;;;;;20.48;13.10;;;;;;;;;;6143366;23;20045;-85
2021/01/09 03:06:42;;;;;;;22.95;13.48;;;;;;;;;;6193843;23;20009;-85
2021/01/09 03:09:08;;;;;;;22.63;11.25;;;;;;;;;;6195161;23;20017;-85
2021/01/09 03:11:34;;;;;;;20.38;12.52;;;;;;;;;;6194298;23;20021;-85
2021/01/09 03:14:00;;;;;;;21.58;12.27;;;;;;;;;;6194028;23;20017;-85
2021/01/09 03:16:27;;;;;;;22.70;12.40;;;;;;;;;;6194029;23;20039;-85
2021/01/09 03:18:53;;;;;;;20.88;12.38;;;;;;;;;;6143262;23;20031;-85
2021/01/09 03:21:20;;;;;;;25.90;13.88;;;;;;;;;;6167469;23;20017;-85
2021/01/09 03:23:45;;;;;;;20.60;13.60;;;;;;;;;;6193897;23;20017;-85
2021/01/09 03:26:12;;;;;;;26.10;14.52;;;;;;;;;;6193604;23;20020;-85
2021/01/09 03:28:38;;;;;;;25.52;14.30;;;;;;;;;;6168109;23;20017;-85
2021/01/09 03:31:04;;;;;;;25.08;13.90;;;;;;;;;;6194020;23;20022;-85
2021/01/09 03:33:31;;;;;;;27.55;14.77;;;;;;;;;;6193876;23;20092;-85
2021/01/09 03:35:57;;;;;;;24.15;13.98;;;;;;;;;;6194141;23;20020;-85
2021/01/09 03:38:23;;;;;;;29.00;14.85;;;;;;;;;;6193578;23;20020;-85
2021/01/09 03:40:49;;;;;;;27.50;15.70;;;;;;;;;;6194510;23;20095;-85
2021/01/09 03:43:15;;;;;;;27.83;16.23;;;;;;;;;;6143708;23;20017;-85
2021/01/09 03:45:41;;;;;;;26.70;15.18;;;;;;;;;;6194428;23;20017;-85
2021/01/09 03:48:08;;;;;;;23.90;15.35;;;;;;;;;;6167308;23;20071;-85
2021/01/09 03:50:35;;;;;;;23.60;13.98;;;;;;;;;;6193383;23;20017;-84
2021/01/09 03:53:01;;;;;;;26.35;15.32;;;;;;;;;;6142329;23;20013;-84
2021/01/09 03:55:27;;;;;;;25.00;14.85;;;;;;;;;;6166897;23;20441;-84
2021/01/09 03:57:53;;;;;;;27.50;15.27;;;;;;;;;;6167269;23;20017;-84
2021/01/09 04:00:20;;;;;;;28.50;15.90;;;;;;;;;;6167142;23;20021;-84
2021/01/09 04:02:46;;;;;;;27.17;16.30;;;;;;;;;;6166823;23;20017;-85
2021/01/09 04:05:12;;;;;;;31.73;17.20;;;;;;;;;;6193438;23;20019;-85
2021/01/09 04:07:39;;;;;;;21.50;14.68;;;;;;;;;;6193850;23;20453;-84
2021/01/09 04:10:06;;;;;;;27.67;15.07;;;;;;;;;;6193487;23;20434;-85
2021/01/09 04:12:32;;;;;;;26.17;14.55;;;;;;;;;;6193368;23;20044;-85
2021/01/09 04:14:59;;;;;;;28.05;16.02;;;;;;;;;;6165673;23;20021;-85
2021/01/09 04:17:25;;;;;;;27.65;17.58;;;;;;;;;;6191419;23;20361;-84
2021/01/09 04:19:51;;;;;;;26.58;15.57;;;;;;;;;;6166226;23;20049;-85
2021/01/09 04:22:17;;;;;;;27.50;15.93;;;;;;;;;;6193758;23;20017;-85
2021/01/09 04:24:44;;;;;;;29.67;17.70;;;;;;;;;;6166461;23;20021;-85
2021/01/09 04:27:10;;;;;;;25.27;14.75;;;;;;;;;;6192496;23;20013;-85
2021/01/09 04:29:36;;;;;;;24.98;15.05;;;;;;;;;;6166904;23;20017;-84
2021/01/09 04:32:02;;;;;;;28.17;16.05;;;;;;;;;;6166352;23;20373;-84
2021/01/09 04:34:29;;;;;;;26.45;15.25;;;;;;;;;;6167057;23;20031;-84
2021/01/09 04:36:55;;;;;;;28.27;16.98;;;;;;;;;;6192999;23;20016;-84
2021/01/09 04:39:21;;;;;;;24.45;16.02;;;;;;;;;;6192118;23;20311;-85
2021/01/09 04:41:48;;;;;;;27.67;16.10;;;;;;;;;;6141691;23;20021;-84
2021/01/09 04:44:15;;;;;;;30.10;17.75;;;;;;;;;;6166969;23;20016;-85
2021/01/09 04:46:47;;;;;;;30.20;16.88;;;;;;;;;;6193896;23;20046;-85
2021/01/09 04:49:13;;;;;;;28.08;16.42;;;;;;;;;;6194059;23;20322;-85
2021/01/09 04:51:39;;;;;;;29.30;16.65;;;;;;;;;;6194602;23;20055;-85
2021/01/09 04:54:06;;;;;;;27.23;16.92;;;;;;;;;;6205123;23;20017;-85
2021/01/09 04:56:32;;;;;;;29.15;16.83;;;;;;;;;;6173602;23;20071;-86
2021/01/09 04:58:59;;;;;;;29.27;16.70;;;;;;;;;;6200292;23;20023;-85
2021/01/09 05:01:26;;;;;;;27.42;17.17;;;;;;;;;;6199574;23;20009;-86
2021/01/09 05:03:52;;;;;;;30.23;17.48;;;;;;;;;;6173302;23;20027;-86
2021/01/09 05:06:20;;;;;;;29.15;17.02;;;;;;;;;;6197773;23;20013;-85
2021/01/09 05:08:46;;;;;;;28.88;16.40;;;;;;;;;;6196480;23;20350;-85
2021/01/09 05:11:12;;;;;;;29.30;17.63;;;;;;;;;;6169813;23;20019;-85
2021/01/09 05:13:38;;;;;;;26.88;16.88;;;;;;;;;;6169641;23;20024;-85
2021/01/09 05:16:05;;;;;;;30.92;17.80;;;;;;;;;;6169078;23;20044;-85
2021/01/09 05:18:32;;;;;;;27.90;16.08;;;;;;;;;;6195589;23;20017;-85
2021/01/09 05:20:59;;;;;;;29.20;16.33;;;;;;;;;;6144518;23;20092;-85
2021/01/09 05:23:26;;;;;;;27.67;16.67;;;;;;;;;;6168467;23;20016;-85
2021/01/09 05:25:53;;;;;;;29.88;16.67;;;;;;;;;;6144558;23;20025;-85
2021/01/09 05:28:19;;;;;;;31.00;16.75;;;;;;;;;;6195941;23;20075;-85
2021/01/09 05:30:45;;;;;;;27.63;17.05;;;;;;;;;;6194362;23;20013;-85
2021/01/09 05:33:12;;;;;;;31.27;16.45;;;;;;;;;;6195789;23;20027;-85
2021/01/09 05:35:38;;;;;;;28.63;15.55;;;;;;;;;;6168296;23;20066;-85
2021/01/09 05:38:04;;;;;;;28.67;16.38;;;;;;;;;;6193983;23;20381;-85
2021/01/09 05:40:37;;;;;;;26.48;16.77;;;;;;;;;;6193467;23;20491;-85
2021/01/09 05:43:07;;;;;;;30.33;16.63;;;;;;;;;;6193794;23;20017;-85
2021/01/09 05:45:33;;;;;;;31.40;17.08;;;;;;;;;;6167827;23;20013;-85
2021/01/09 05:48:01;;;;;;;27.27;16.48;;;;;;;;;;6166749;23;20013;-85
2021/01/09 05:50:28;;;;;;;24.83;15.23;;;;;;;;;;6193318;23;20013;-85
2021/01/09 05:52:54;;;;;;;31.00;17.48;;;;;;;;;;6143300;23;20036;-85
2021/01/09 05:55:20;;;;;;;32.35;18.27;;;;;;;;;;6193811;23;20300;-85
2021/01/09 05:57:47;;;;;;;28.98;17.98;;;;;;;;;;6167573;23;20025;-84
2021/01/09 06:00:15;;;;;;;28.60;17.23;;;;;;;;;;6167197;23;20043;-85
2021/01/09 06:02:48;;;;;;;30.65;16.35;;;;;;;;;;6192745;23;20017;-85
2021/01/09 06:05:16;;;;;;;31.38;17.58;;;;;;;;;;6192367;23;20013;-85
2021/01/09 06:07:44;;;;;;;25.88;15.93;;;;;;;;;;6166946;23;20013;-85
2021/01/09 06:10:12;;;;;;;32.33;17.90;;;;;;;;;;6166760;23;20016;-85
2021/01/09 06:12:49;;;;;;;29.38;17.65;;;;;;;;;;6166491;23;20021;-85
2021/01/09 06:15:17;;;;;;;27.90;17.02;;;;;;;;;;6192107;23;20009;-85
2021/01/09 06:17:43;;;;;;;31.52;18.02;;;;;;;;;;6190956;23;20009;-85
2021/01/09 06:20:11;;;;;;;32.33;17.90;;;;;;;;;;6165499;23;20021;-85
2021/01/09 06:22:38;;;;;;;29.52;17.88;;;;;;;;;;6165684;23;20019;-85
2021/01/09 06:25:06;;;;;;;25.75;16.00;;;;;;;;;;6191675;23;20017;-85
2021/01/09 06:27:35;;;;;;;28.23;17.52;;;;;;;;;;6190662;23;20017;-84
2021/01/09 06:30:03;;;;;;;30.33;18.17;;;;;;;;;;6164066;23;20016;-85
2021/01/09 06:32:33;;;;;;;28.35;16.52;;;;;;;;;;6190003;23;20013;-85
2021/01/09 06:35:03;;;;;;;29.30;17.13;;;;;;;;;;6190711;23;20024;-85
2021/01/09 06:37:29;;;;;;;28.88;17.13;;;;;;;;;;6191173;23;20025;-85
2021/01/09 06:39:55;;;;;;;29.65;16.88;;;;;;;;;;6190484;23;20345;-85
2021/01/09 06:42:24;;;;;;;29.98;16.08;;;;;;;;;;6190230;23;20024;-85
2021/01/09 06:44:51;;;;;;;33.22;16.95;;;;;;;;;;6189661;23;20513;-85
2021/01/09 06:47:25;;;;;;;32.10;18.65;;;;;;;;;;6163942;23;20434;-85
2021/01/09 06:49:51;;;;;;;28.17;17.45;;;;;;;;;;6163358;23;20044;-85
2021/01/09 06:52:17;;;;;;;28.42;17.33;;;;;;;;;;6164889;23;20052;-85
2021/01/09 06:54:45;;;;;;;31.70;17.75;;;;;;;;;;6141578;23;20028;-85
2021/01/09 06:57:13;;;;;;;28.42;16.60;;;;;;;;;;6192661;23;20021;-85
2021/01/09 06:59:41;;;;;;;30.45;17.85;;;;;;;;;;6165358;23;20068;-85
2021/01/09 07:02:11;;;;;;;29.40;17.92;;;;;;;;;;6191263;23;20017;-85
2021/01/09 07:05:19;;;;;;;28.33;16.95;;;;;;;;;;6190436;23;20009;-85
2021/01/09 07:07:55;;;;;;;25.58;16.33;;;;;;;;;;6164580;23;20048;-85
2021/01/09 07:10:23;;;;;;;31.45;17.80;;;;;;;;;;6186715;23;20095;-85
2021/01/09 07:12:57;;;;;;;30.67;17.50;;;;;;;;;;6163541;23;20013;-85
2021/01/09 07:15:26;;;;;;;36.13;16.88;;;;;;;;;;6189087;23;20019;-85
2021/01/09 07:17:54;;;;;;;31.60;17.48;;;;;;;;;;6189700;23;20017;-85
2021/01/09 07:20:23;;;;;;;30.38;17.40;;;;;;;;;;6189991;23;20065;-85
2021/01/09 07:22:51;;;;;;;28.40;18.05;;;;;;;;;;6194864;23;20017;-85
2021/01/09 07:25:28;;;;;;;29.40;16.88;;;;;;;;;;6166171;23;20109;-85
2021/01/09 07:27:56;;;;;;;30.77;19.35;;;;;;;;;;6192680;23;20012;-85
2021/01/09 07:30:24;;;;;;;28.88;17.92;;;;;;;;;;6193633;23;20024;-85
2021/01/09 07:32:52;;;;;;;29.95;17.30;;;;;;;;;;6166131;23;20436;-85
2021/01/09 07:35:23;;;;;;;31.40;18.60;;;;;;;;;;6192221;23;20354;-85
2021/01/09 07:37:51;;;;;;;31.35;17.92;;;;;;;;;;6193916;23;20013;-85
2021/01/09 07:40:19;;;;;;;27.25;17.02;;;;;;;;;;6142601;23;20073;-85
2021/01/09 07:42:46;;;;;;;29.52;18.33;;;;;;;;;;6165603;23;20044;-85
2021/01/09 07:45:15;;;;;;;38.50;23.58;;;;;;;;;;6166630;23;20017;-85
2021/01/09 07:47:44;;;;;;;33.72;21.05;;;;;;;;;;6192310;23;20024;-85
2021/01/09 07:50:12;;;;;;;34.42;22.42;;;;;;;;;;6165740;23;20019;-85
2021/01/09 07:52:38;;;;;;;35.30;21.70;;;;;;;;;;6165794;23;20353;-85
2021/01/09 07:55:06;;;;;;;31.88;19.27;;;;;;;;;;6166535;23;20021;-85
2021/01/09 07:57:33;;;;;;;40.08;22.00;;;;;;;;;;6166735;23;20284;-85
2021/01/09 08:00:01;;;;;;;38.25;24.00;;;;;;;;;;6192129;23;20032;-85
2021/01/09 08:02:29;;;;;;;38.70;23.77;;;;;;;;;;6164875;23;20024;-85
2021/01/09 08:05:03;;;;;;;37.58;23.30;;;;;;;;;;6192166;23;20047;-85
2021/01/09 08:07:29;;;;;;;38.45;24.65;;;;;;;;;;6191976;23;20024;-85
2021/01/09 08:09:55;;;;;;;35.25;22.00;;;;;;;;;;6193638;23;20017;-85
2021/01/09 08:12:25;;;;;;;30.08;19.08;;;;;;;;;;6165092;23;20338;-85
2021/01/09 08:14:52;;;;;;;33.47;18.58;;;;;;;;;;6191860;23;20028;-85
2021/01/09 08:17:18;;;;;;;31.58;19.33;;;;;;;;;;6140675;23;20028;-85
2021/01/09 08:19:44;;;;;;;30.88;18.98;;;;;;;;;;6191408;23;20013;-85
2021/01/09 08:22:11;;;;;;;39.55;24.25;;;;;;;;;;6189819;23;20046;-85
2021/01/09 08:24:37;;;;;;;42.35;25.45;;;;;;;;;;6191959;23;20019;-85
2021/01/09 08:27:03;;;;;;;34.95;23.27;;;;;;;;;;6165619;23;20009;-85
2021/01/09 08:29:29;;;;;;;36.50;23.77;;;;;;;;;;6165476;23;20036;-85
2021/01/09 08:31:56;;;;;;;35.53;21.98;;;;;;;;;;6166208;23;20299;-85
2021/01/09 08:34:23;;;;;;;28.90;19.58;;;;;;;;;;6192546;23;20020;-85
2021/01/09 08:36:53;;;;;;;36.22;22.38;;;;;;;;;;6190922;23;20017;-85
2021/01/09 08:39:20;;;;;;;42.60;25.15;;;;;;;;;;6165938;23;20024;-85
2021/01/09 08:41:46;;;;;;;35.45;21.20;;;;;;;;;;6191717;23;20021;-84
2021/01/09 08:44:14;;;;;;;34.22;21.23;;;;;;;;;;6191616;23;20045;-85
2021/01/09 08:46:41;;;;;;;32.58;20.23;;;;;;;;;;6192075;23;20013;-85
2021/01/09 08:49:22;;;;;;;31.38;19.45;;;;;;;;;;6192055;23;20017;-84
2021/01/09 08:51:51;;;;;;;33.47;19.55;;;;;;;;;;6192299;23;20322;-84
2021/01/09 08:54:20;;;;;;;32.30;19.50;;;;;;;;;;6166834;23;20043;-85
2021/01/09 08:56:47;;;;;;;30.75;19.70;;;;;;;;;;6166887;23;20017;-85
2021/01/09 08:59:13;;;;;;;32.08;20.70;;;;;;;;;;6165334;23;20017;-85
2021/01/09 09:01:41;;;;;;;31.15;19.02;;;;;;;;;;6192263;23;20027;-85
2021/01/09 09:04:08;;;;;;;33.90;19.77;;;;;;;;;;6166010;23;20009;-85
2021/01/09 09:06:36;;;;;;;33.40;20.45;;;;;;;;;;6165964;23;20193;-85
2021/01/09 09:09:03;;;;;;;35.17;19.83;;;;;;;;;;6193284;23;20023;-85
2021/01/09 09:11:30;;;;;;;35.40;19.55;;;;;;;;;;6166858;23;20315;-85
2021/01/09 09:14:06;;;;;;;35.20;21.70;;;;;;;;;;6168035;23;20017;-85
2021/01/09 09:16:33;;;;;;;36.00;22.02;;;;;;;;;;6193048;23;20464;-85
2021/01/09 09:19:09;;;;;;;35.30;21.45;;;;;;;;;;6193253;23;20023;-85
2021/01/09 09:21:37;;;;;;;32.08;19.60;;;;;;;;;;6167298;23;20021;-85
2021/01/09 09:24:04;;;;;;;35.13;20.85;;;;;;;;;;6167146;23;20013;-85
2021/01/09 09:26:31;;;;;;;30.63;19.42;;;;;;;;;;6166671;23;20017;-85
2021/01/09 09:28:59;;;;;;;32.83;19.25;;;;;;;;;;6192698;23;20016;-85
2021/01/09 09:31:27;;;;;;;32.60;20.90;;;;;;;;;;6192901;23;20024;-85
2021/01/09 09:34:04;;;;;;;32.05;19.35;;;;;;;;;;6192724;23;20013;-85
2021/01/09 09:36:32;;;;;;;35.40;20.98;;;;;;;;;;6166954;23;20023;-85
2021/01/09 09:38:59;;;;;;;35.60;20.92;;;;;;;;;;6192517;23;20024;-85
2021/01/09 09:41:25;;;;;;;30.42;20.00;;;;;;;;;;6167134;23;20027;-85
2021/01/09 09:43:56;;;;;;;33.55;21.40;;;;;;;;;;6166572;23;20016;-85
2021/01/09 09:46:23;;;;;;;34.67;21.58;;;;;;;;;;6166330;23;20059;-85
2021/01/09 09:48:49;;;;;;;37.03;22.15;;;;;;;;;;6167454;23;20014;-85
2021/01/09 09:51:16;;;;;;;33.25;22.08;;;;;;;;;;6168126;23;20326;-85
2021/01/09 09:53:51;;;;;;;32.97;21.55;;;;;;;;;;6194264;23;20021;-85
2021/01/09 09:56:18;;;;;;;34.88;21.95;;;;;;;;;;6192663;23;20016;-85
2021/01/09 09:58:44;;;;;;;36.55;23.17;;;;;;;;;;6195456;23;20016;-85
2021/01/09 10:01:19;;;;;;;37.03;22.77;;;;;;;;;;6195309;23;20009;-85
2021/01/09 10:03:46;;;;;;;36.15;22.20;;;;;;;;;;6193730;23;20013;-85
2021/01/09 10:06:12;;;;;;;40.40;22.33;;;;;;;;;;6168234;23;20017;-85
2021/01/09 10:08:38;;;;;;;38.78;22.35;;;;;;;;;;6168861;23;20013;-85
2021/01/09 10:11:05;;;;;;;40.88;23.35;;;;;;;;;;6194236;23;20013;-85
2021/01/09 10:13:31;;;;;;;43.65;30.20;;;;;;;;;;6192505;23;20013;-85
2021/01/09 10:15:58;;;;;;;35.10;22.92;;;;;;;;;;6192624;23;20009;-84
2021/01/09 10:18:25;;;;;;;33.20;20.65;;;;;;;;;;6166437;23;20071;-84
2021/01/09 10:20:52;;;;;;;34.25;19.45;;;;;;;;;;6192272;23;20013;-84
2021/01/09 10:23:18;;;;;;;33.47;19.98;;;;;;;;;;6192504;23;20108;-85
2021/01/09 10:25:44;;;;;;;35.70;22.75;;;;;;;;;;6193646;23;20013;-85
2021/01/09 10:28:10;;;;;;;38.08;23.13;;;;;;;;;;6169397;23;20021;-85
2021/01/09 10:30:36;;;;;;;35.42;20.20;;;;;;;;;;6168993;23;20024;-85
2021/01/09 10:33:08;;;;;;;34.67;21.42;;;;;;;;;;6202912;23;20005;-90
2021/01/09 10:35:36;;;;;;;34.22;20.88;;;;;;;;;;6165774;23;20117;-88
2021/01/09 10:41:14;;;;;;;33.45;21.63;;;;;;;;;;6160832;23;20027;-90
2021/01/09 10:43:42;;;;;;;37.55;22.10;;;;;;;;;;6163383;23;20017;-90
2021/01/09 10:46:08;;;;;;;32.75;21.52;;;;;;;;;;6190044;23;20021;-90
2021/01/09 10:48:35;;;;;;;32.33;19.30;;;;;;;;;;6162983;23;20493;-87
2021/01/09 10:51:03;;;;;;;34.53;20.35;;;;;;;;;;6162901;23;20009;-88
2021/01/09 10:53:29;;;;;;;38.72;21.10;;;;;;;;;;6163436;23;20016;-86
2021/01/09 10:55:55;;;;;;;33.65;19.42;;;;;;;;;;6188775;23;20533;-88
2021/01/09 10:58:22;;;;;;;35.33;19.67;;;;;;;;;;6162938;23;20327;-87
2021/01/09 11:00:48;;;;;;;30.65;18.23;;;;;;;;;;6173249;23;20021;-87
2021/01/09 11:03:14;;;;;;;31.80;18.67;;;;;;;;;;6159459;23;20017;-87
2021/01/09 11:05:41;;;;;;;28.55;18.10;;;;;;;;;;6207478;23;20017;-86
2021/01/09 11:08:08;;;;;;;26.98;17.88;;;;;;;;;;6194501;23;20009;-87
2021/01/09 11:10:34;;;;;;;32.30;17.80;;;;;;;;;;6189552;23;20013;-87
2021/01/09 11:13:00;;;;;;;30.08;18.17;;;;;;;;;;6188084;23;20013;-87
2021/01/09 11:15:26;;;;;;;35.22;21.20;;;;;;;;;;6186039;23;20020;-87
2021/01/09 11:17:52;;;;;;;28.02;17.35;;;;;;;;;;6189161;23;20069;-87
2021/01/09 11:20:18;;;;;;;31.02;18.65;;;;;;;;;;6188471;23;20047;-87
2021/01/09 11:22:45;;;;;;;27.75;17.00;;;;;;;;;;6189428;23;20021;-86
2021/01/09 11:25:12;;;;;;;30.17;18.60;;;;;;;;;;6188052;23;20450;-87
2021/01/09 11:27:38;;;;;;;29.40;17.88;;;;;;;;;;6189389;23;20309;-88
2021/01/09 11:30:06;;;;;;;30.38;19.65;;;;;;;;;;6162515;23;20013;-88
2021/01/09 11:32:32;;;;;;;33.17;19.95;;;;;;;;;;6162024;23;20017;-87
2021/01/09 11:34:58;;;;;;;30.85;17.73;;;;;;;;;;6188706;23;20321;-87
2021/01/09 11:37:24;;;;;;;28.00;18.30;;;;;;;;;;6187992;23;20059;-87
2021/01/09 11:39:53;;;;;;;28.33;18.13;;;;;;;;;;6188497;23;20438;-87
2021/01/09 11:42:20;;;;;;;30.90;17.23;;;;;;;;;;6191592;23;20017;-87
2021/01/09 11:44:47;;;;;;;27.98;17.45;;;;;;;;;;6193016;23;20017;-86
2021/01/09 11:47:13;;;;;;;24.33;15.52;;;;;;;;;;6192188;23;20017;-86
2021/01/09 11:49:39;;;;;;;26.23;16.10;;;;;;;;;;6165390;23;20024;-86
2021/01/09 11:52:06;;;;;;;30.08;18.10;;;;;;;;;;6163675;23;20028;-87
2021/01/09 11:54:32;;;;;;;26.58;16.60;;;;;;;;;;6138609;23;20017;-86
2021/01/09 11:57:00;;;;;;;33.53;19.88;;;;;;;;;;6138019;23;20071;-87
2021/01/09 11:59:27;;;;;;;25.63;15.88;;;;;;;;;;6163326;23;20311;-88
2021/01/09 12:01:53;;;;;;;23.02;14.25;;;;;;;;;;6137336;23;20017;-87
2021/01/09 12:04:19;;;;;;;26.02;16.80;;;;;;;;;;6191285;23;20469;-88
2021/01/09 12:06:45;;;;;;;22.42;14.32;;;;;;;;;;6163919;23;20370;-87
2021/01/09 12:09:11;;;;;;;24.55;15.77;;;;;;;;;;6161193;23;20009;-86
2021/01/09 12:11:37;;;;;;;26.50;18.05;;;;;;;;;;6190133;23;20430;-86
2021/01/09 12:14:05;;;;;;;26.75;17.75;;;;;;;;;;6162485;23;20093;-86
2021/01/09 12:16:33;;;;;;;30.65;18.67;;;;;;;;;;6139848;23;20020;-86
2021/01/09 12:19:00;;;;;;;29.65;18.63;;;;;;;;;;6187802;23;20009;-87
2021/01/09 12:21:28;;;;;;;28.52;17.75;;;;;;;;;;6188749;23;20076;-86
2021/01/09 12:23:55;;;;;;;28.35;18.17;;;;;;;;;;6189548;23;20054;-87
2021/01/09 12:26:21;;;;;;;28.98;18.85;;;;;;;;;;6195768;23;20013;-86
2021/01/09 12:28:47;;;;;;;28.88;18.40;;;;;;;;;;6145312;23;20430;-87
2021/01/09 12:31:13;;;;;;;28.67;18.17;;;;;;;;;;6161173;23;20020;-87
2021/01/09 12:33:41;;;;;;;30.90;18.73;;;;;;;;;;6163705;23;20021;-86
2021/01/09 12:36:07;;;;;;;30.05;19.25;;;;;;;;;;6187816;23;20064;-87
2021/01/09 12:38:33;;;;;;;35.20;21.52;;;;;;;;;;6161836;23;20429;-87
2021/01/09 12:41:00;;;;;;;27.17;16.90;;;;;;;;;;6190435;23;20438;-86
2021/01/09 12:43:26;;;;;;;27.77;17.15;;;;;;;;;;6162737;23;20071;-87
2021/01/09 12:45:54;;;;;;;29.00;17.00;;;;;;;;;;6137801;23;20083;-87
2021/01/09 12:48:22;;;;;;;26.25;16.52;;;;;;;;;;6166767;23;20013;-87
2021/01/09 12:50:49;;;;;;;30.23;16.73;;;;;;;;;;6163390;23;20012;-87
2021/01/09 12:53:15;;;;;;;32.75;18.67;;;;;;;;;;6188781;23;20013;-87
2021/01/09 12:55:41;;;;;;;31.08;18.42;;;;;;;;;;6164865;23;20009;-87
2021/01/09 12:58:10;;;;;;;31.05;17.95;;;;;;;;;;6162036;23;20017;-87
2021/01/09 13:00:36;;;;;;;30.13;18.65;;;;;;;;;;6191348;23;20029;-86
2021/01/09 13:03:03;;;;;;;33.50;19.45;;;;;;;;;;6163157;23;20012;-87
2021/01/09 13:05:29;;;;;;;32.25;20.00;;;;;;;;;;6165069;23;20020;-87
2021/01/09 13:07:56;;;;;;;30.92;18.75;;;;;;;;;;6161908;23;20017;-87
2021/01/09 13:10:22;;;;;;;38.13;21.45;;;;;;;;;;6188038;23;20017;-86
2021/01/09 13:12:49;;;;;;;35.40;19.67;;;;;;;;;;6190125;23;20013;-86
2021/01/09 13:15:15;;;;;;;32.65;19.42;;;;;;;;;;6161768;23;20040;-87
2021/01/09 13:17:42;;;;;;;30.02;17.58;;;;;;;;;;6187698;23;20013;-87
2021/01/09 13:20:09;;;;;;;29.10;18.98;;;;;;;;;;6188486;23;20017;-88
2021/01/09 13:22:35;;;;;;;34.30;18.88;;;;;;;;;;6161243;23;20036;-87
2021/01/09 13:25:05;;;;;;;32.38;18.70;;;;;;;;;;6162024;23;20504;-87
2021/01/09 13:27:31;;;;;;;32.25;18.27;;;;;;;;;;6161076;23;20028;-87
2021/01/09 13:29:57;;;;;;;35.10;19.98;;;;;;;;;;6187933;23;20013;-87
2021/01/09 13:32:25;;;;;;;38.17;20.45;;;;;;;;;;6136730;23;20020;-88
2021/01/09 13:34:51;;;;;;;29.52;16.90;;;;;;;;;;6137928;23;20012;-86
2021/01/09 13:37:17;;;;;;;27.77;16.80;;;;;;;;;;6188275;23;20021;-86
2021/01/09 13:39:44;;;;;;;30.13;18.15;;;;;;;;;;6135166;23;20040;-87
2021/01/09 13:42:11;;;;;;;30.08;17.17;;;;;;;;;;6185802;23;20052;-86
2021/01/09 13:44:37;;;;;;;28.73;16.75;;;;;;;;;;6160682;23;20017;-87
2021/01/09 13:47:04;;;;;;;29.13;16.75;;;;;;;;;;6185473;23;20023;-87
2021/01/09 13:49:31;;;;;;;27.17;16.17;;;;;;;;;;6161204;23;20009;-87
2021/01/09 13:51:57;;;;;;;21.65;14.23;;;;;;;;;;6184248;23;20062;-87
2021/01/09 13:54:23;;;;;;;22.77;13.73;;;;;;;;;;6158097;23;20113;-87
2021/01/09 13:56:49;;;;;;;24.35;14.45;;;;;;;;;;6160357;23;20021;-87
2021/01/09 13:59:18;;;;;;;30.75;17.92;;;;;;;;;;6161551;23;20362;-86
2021/01/09 14:01:46;;;;;;;25.80;15.45;;;;;;;;;;6187327;23;20056;-86
2021/01/09 14:04:13;;;;;;;25.73;15.57;;;;;;;;;;6160270;23;20497;-86
2021/01/09 14:06:39;;;;;;;28.27;16.38;;;;;;;;;;6192328;23;20013;-86
2021/01/09 14:09:06;;;;;;;22.42;13.82;;;;;;;;;;6183800;23;20366;-86
2021/01/09 14:21:06;;;;;;;27.92;16.55;;;;;;;;;;6113558;23;20151;-90
2021/01/09 14:23:31;;;;;;;28.60;18.27;;;;;;;;;;6156269;23;20025;-91
2021/01/09 14:25:57;;;;;;;29.00;16.67;;;;;;;;;;6157489;23;20101;-91
2021/01/09 14:28:23;;;;;;;24.63;14.75;;;;;;;;;;6157655;23;20041;-91